createdAt,value
2018-11-07T00:01:59.044Z,12.50
2018-11-07T00:04:27.154Z,12.13
2018-11-07T00:06:55.313Z,12.87
2018-11-07T00:09:23.411Z,12.77
2018-11-07T00:11:51.522Z,12.47
2018-11-07T00:14:19.617Z,12.97
2018-11-07T00:16:47.743Z,13.53
2018-11-07T00:19:15.838Z,13.60
2018-11-07T00:21:43.932Z,13.20
2018-11-07T00:24:12.050Z,12.23
2018-11-07T00:26:40.175Z,12.50
2018-11-07T00:29:08.525Z,13.33
2018-11-07T00:31:36.629Z,13.10
2018-11-07T00:34:04.794Z,11.73
2018-11-07T00:36:32.911Z,12.87
2018-11-07T00:39:01.021Z,13.50
2018-11-07T00:41:29.137Z,12.43
2018-11-07T00:43:57.247Z,12.27
2018-11-07T00:46:25.356Z,14.07
2018-11-07T00:48:53.469Z,11.77
2018-11-07T00:51:21.582Z,12.93
2018-11-07T00:53:49.677Z,13.90
2018-11-07T00:56:17.802Z,11.97
2018-11-07T00:58:45.921Z,12.63
2018-11-07T01:01:14.036Z,13.33
2018-11-07T01:03:42.161Z,12.73
2018-11-07T01:06:10.261Z,12.10
2018-11-07T01:08:39.060Z,12.57
2018-11-07T01:11:07.289Z,12.40
2018-11-07T01:13:35.766Z,12.33
2018-11-07T01:16:03.877Z,12.50
2018-11-07T01:18:31.989Z,13.20
2018-11-07T01:21:00.088Z,12.10
2018-11-07T01:23:28.215Z,12.57
2018-11-07T01:25:56.357Z,13.30
2018-11-07T01:28:24.645Z,11.47
2018-11-07T01:30:52.629Z,12.17
2018-11-07T01:33:20.749Z,11.70
2018-11-07T01:35:48.868Z,11.67
2018-11-07T01:38:17.089Z,12.13
2018-11-07T01:40:45.250Z,12.43
2018-11-07T01:43:13.373Z,11.57
2018-11-07T01:45:41.485Z,11.90
2018-11-07T01:48:09.614Z,12.70
2018-11-07T01:50:37.729Z,12.00
2018-11-07T01:53:05.839Z,12.20
2018-11-07T01:55:33.950Z,11.33
2018-11-07T01:58:02.062Z,11.60
2018-11-07T02:00:30.216Z,12.00
2018-11-07T02:02:58.361Z,11.47
2018-11-07T02:05:26.509Z,11.47
2018-11-07T02:07:54.661Z,11.93
2018-11-07T02:10:22.802Z,11.93
2018-11-07T02:12:50.950Z,12.10
2018-11-07T02:15:19.093Z,11.60
2018-11-07T02:17:47.234Z,11.90
2018-11-07T02:20:15.357Z,11.30
2018-11-07T02:22:43.510Z,10.67
2018-11-07T02:25:11.652Z,10.87
2018-11-07T02:27:40.497Z,11.30
2018-11-07T02:30:12.895Z,11.83
2018-11-07T02:32:41.035Z,11.73
2018-11-07T02:35:09.308Z,11.63
2018-11-07T02:37:37.470Z,10.47
2018-11-07T02:40:06.228Z,10.37
2018-11-07T02:42:34.389Z,11.23
2018-11-07T02:45:02.522Z,11.40
2018-11-07T02:47:30.655Z,11.00
2018-11-07T02:49:58.798Z,9.67
2018-11-07T02:52:26.962Z,11.03
2018-11-07T02:54:55.098Z,11.17
2018-11-07T02:57:23.241Z,10.90
2018-11-07T02:59:51.384Z,10.80
2018-11-07T03:02:19.526Z,10.43
2018-11-07T03:04:47.662Z,10.90
2018-11-07T03:07:15.842Z,9.73
2018-11-07T03:09:43.981Z,9.30
2018-11-07T03:12:12.124Z,10.03
2018-11-07T03:14:40.267Z,9.07
2018-11-07T03:17:08.410Z,10.27
2018-11-07T03:19:36.556Z,9.20
2018-11-07T03:22:04.724Z,9.87
2018-11-07T03:24:33.005Z,10.00
2018-11-07T03:27:01.154Z,8.07
2018-11-07T03:29:29.293Z,9.83
2018-11-07T03:31:57.462Z,8.40
2018-11-07T03:34:25.610Z,9.37
2018-11-07T03:36:53.753Z,8.40
2018-11-07T03:39:21.884Z,9.50
2018-11-07T03:41:50.031Z,9.67
2018-11-07T03:44:18.148Z,8.70
2018-11-07T03:46:46.300Z,8.63
2018-11-07T03:49:14.516Z,8.90
2018-11-07T03:51:42.662Z,9.73
2018-11-07T03:54:10.794Z,9.70
2018-11-07T03:56:38.912Z,8.60
2018-11-07T03:59:07.045Z,8.70
2018-11-07T04:01:35.159Z,9.53
2018-11-07T04:04:03.296Z,8.70
2018-11-07T04:06:31.396Z,9.20
2018-11-07T04:08:59.496Z,9.10
2018-11-07T04:11:27.618Z,9.20
2018-11-07T04:13:55.720Z,8.80
2018-11-07T04:16:23.849Z,9.20
2018-11-07T04:18:51.970Z,9.30
2018-11-07T04:21:20.071Z,8.17
2018-11-07T04:23:52.418Z,8.43
2018-11-07T04:26:20.526Z,9.67
2018-11-07T04:28:48.640Z,9.17
2018-11-07T04:31:16.756Z,8.80
2018-11-07T04:33:44.881Z,8.37
2018-11-07T04:36:12.990Z,8.00
2018-11-07T04:38:41.287Z,8.77
2018-11-07T04:41:09.384Z,9.23
2018-11-07T04:43:37.503Z,8.63
2018-11-07T04:46:05.627Z,8.37
2018-11-07T04:48:33.738Z,7.60
2018-11-07T04:51:01.879Z,9.00
2018-11-07T04:53:30.018Z,8.60
2018-11-07T04:55:58.138Z,8.63
2018-11-07T04:58:26.248Z,8.88
2018-11-07T05:00:54.425Z,9.50
2018-11-07T05:03:22.614Z,7.80
2018-11-07T05:05:50.786Z,8.27
2018-11-07T05:08:18.920Z,8.40
2018-11-07T05:10:47.049Z,8.97
2018-11-07T05:13:15.253Z,8.63
2018-11-07T05:15:43.401Z,8.23
2018-11-07T05:18:11.542Z,7.87
2018-11-07T05:20:39.690Z,8.80
2018-11-07T05:23:07.820Z,7.60
2018-11-07T05:25:35.961Z,7.53
2018-11-07T05:28:04.270Z,8.18
2018-11-07T05:30:32.414Z,8.30
2018-11-07T05:33:00.550Z,7.60
2018-11-07T05:35:28.722Z,6.87
2018-11-07T05:37:56.861Z,8.07
2018-11-07T05:40:24.988Z,7.23
2018-11-07T05:42:53.122Z,7.40
2018-11-07T05:45:21.354Z,6.70
2018-11-07T05:47:49.481Z,6.57
2018-11-07T05:50:17.632Z,6.80
2018-11-07T05:52:45.789Z,7.00
2018-11-07T05:55:13.932Z,7.40
2018-11-07T05:57:42.044Z,6.90
2018-11-07T06:00:11.507Z,6.00
2018-11-07T06:02:40.063Z,6.10
2018-11-07T06:05:09.158Z,6.50
2018-11-07T06:07:37.928Z,7.00
2018-11-07T06:10:07.793Z,5.10
2018-11-07T06:12:36.232Z,5.63
2018-11-07T06:15:05.098Z,5.70
2018-11-07T06:17:33.200Z,5.93
2018-11-07T06:20:01.296Z,5.60
2018-11-07T06:22:29.418Z,5.30
2018-11-07T06:24:57.582Z,5.50
2018-11-07T06:27:25.641Z,4.70
2018-11-07T06:29:53.740Z,5.13
2018-11-07T06:32:21.840Z,6.53
2018-11-07T06:34:51.038Z,4.80
2018-11-07T06:37:19.586Z,5.57
2018-11-07T06:39:47.687Z,5.40
2018-11-07T06:42:15.776Z,5.30
2018-11-07T06:44:43.906Z,5.25
2018-11-07T06:47:12.010Z,4.80
2018-11-07T06:49:40.121Z,4.90
2018-11-07T06:52:08.240Z,4.93
2018-11-07T06:54:36.354Z,5.07
2018-11-07T06:57:04.468Z,4.70
2018-11-07T06:59:32.580Z,4.97
2018-11-07T07:02:00.717Z,4.47
2018-11-07T07:04:28.879Z,4.50
2018-11-07T07:06:57.004Z,4.43
2018-11-07T07:09:25.146Z,4.77
2018-11-07T07:11:53.277Z,4.97
2018-11-07T07:14:21.415Z,5.10
2018-11-07T07:16:49.552Z,4.30
2018-11-07T07:19:17.685Z,3.63
2018-11-07T07:21:45.813Z,4.07
2018-11-07T07:24:14.057Z,4.43
2018-11-07T07:26:42.211Z,3.93
2018-11-07T07:29:10.354Z,3.50
2018-11-07T07:31:38.481Z,3.63
2018-11-07T07:34:06.629Z,3.97
2018-11-07T07:36:34.762Z,4.03
2018-11-07T07:39:03.280Z,4.10
2018-11-07T07:41:31.418Z,3.80
2018-11-07T07:43:59.558Z,3.83
2018-11-07T07:46:27.714Z,3.43
2018-11-07T07:48:55.869Z,3.67
2018-11-07T07:51:23.996Z,3.40
2018-11-07T07:53:52.187Z,3.40
2018-11-07T07:56:20.271Z,3.20
2018-11-07T07:58:48.397Z,3.30
2018-11-07T08:01:16.614Z,3.00
2018-11-07T08:03:44.702Z,2.70
2018-11-07T08:06:12.800Z,3.07
2018-11-07T08:08:40.900Z,2.67
2018-11-07T08:11:09.112Z,3.43
2018-11-07T08:13:37.267Z,2.53
2018-11-07T08:16:05.360Z,2.73
2018-11-07T08:18:33.468Z,2.57
2018-11-07T08:21:01.647Z,2.70
2018-11-07T08:23:29.706Z,2.73
2018-11-07T08:25:57.837Z,3.23
2018-11-07T08:28:25.953Z,2.93
2018-11-07T08:30:54.085Z,2.60
2018-11-07T08:33:22.158Z,2.13
2018-11-07T08:35:50.255Z,2.40
2018-11-07T08:38:18.372Z,3.03
2018-11-07T08:40:46.505Z,2.73
2018-11-07T08:43:14.600Z,2.70
2018-11-07T08:45:42.701Z,2.23
2018-11-07T08:48:10.849Z,2.33
2018-11-07T08:50:38.921Z,2.43
2018-11-07T08:53:07.032Z,2.57
2018-11-07T08:55:35.160Z,1.90
2018-11-07T08:58:03.262Z,1.80
2018-11-07T09:00:31.375Z,2.17
2018-11-07T09:02:59.522Z,2.53
2018-11-07T09:05:27.665Z,2.63
2018-11-07T09:07:55.802Z,2.30
2018-11-07T09:10:24.522Z,2.10
2018-11-07T09:12:52.665Z,2.10
2018-11-07T09:15:22.072Z,1.73
2018-11-07T09:17:50.198Z,1.80
2018-11-07T09:20:19.654Z,2.23
2018-11-07T09:22:47.798Z,2.10
2018-11-07T09:25:16.407Z,1.57
2018-11-07T09:27:45.294Z,1.50
2018-11-07T09:30:15.489Z,1.97
2018-11-07T09:32:43.683Z,2.00
2018-11-07T09:35:12.463Z,2.00
2018-11-07T09:37:40.608Z,1.53
2018-11-07T09:40:13.034Z,1.77
2018-11-07T09:42:41.803Z,1.60
2018-11-07T09:45:11.739Z,1.70
2018-11-07T09:47:40.625Z,1.93
2018-11-07T09:50:09.640Z,1.87
2018-11-07T09:52:38.213Z,1.70
2018-11-07T09:55:07.774Z,1.67
2018-11-07T09:57:35.972Z,1.73
2018-11-07T10:00:05.978Z,1.50
2018-11-07T10:02:34.113Z,1.27
2018-11-07T10:05:02.261Z,1.90
2018-11-07T10:07:30.383Z,1.53
2018-11-07T10:09:58.516Z,2.53
2018-11-07T10:12:26.725Z,1.83
2018-11-07T10:14:54.846Z,1.63
2018-11-07T10:17:22.988Z,1.43
2018-11-07T10:19:51.126Z,2.30
2018-11-07T10:22:19.265Z,1.40
2018-11-07T10:24:47.395Z,1.90
2018-11-07T10:27:15.809Z,2.00
2018-11-07T10:29:44.376Z,1.70
2018-11-07T10:32:12.124Z,1.33
2018-11-07T10:34:40.336Z,1.80
2018-11-07T10:37:08.516Z,1.17
2018-11-07T10:39:36.707Z,1.73
2018-11-07T10:42:04.855Z,1.90
2018-11-07T10:44:33.170Z,1.60
2018-11-07T10:47:01.245Z,1.23
2018-11-07T10:49:29.492Z,1.37
2018-11-07T10:51:57.743Z,1.50
2018-11-07T10:54:25.781Z,1.40
2018-11-07T10:56:53.938Z,1.23
2018-11-07T10:59:22.076Z,0.97
2018-11-07T11:01:55.670Z,1.50
2018-11-07T11:04:23.861Z,1.10
2018-11-07T11:06:51.966Z,1.23
2018-11-07T11:09:20.083Z,1.13
2018-11-07T11:11:48.196Z,1.17
2018-11-07T11:14:16.301Z,1.23
2018-11-07T11:16:44.784Z,1.10
2018-11-07T11:19:13.470Z,1.17
2018-11-07T11:21:41.916Z,0.73
2018-11-07T11:24:10.031Z,1.10
2018-11-07T11:26:38.140Z,1.30
2018-11-07T11:29:06.342Z,0.90
2018-11-07T11:31:34.504Z,0.90
2018-11-07T11:34:02.613Z,0.93
2018-11-07T11:36:30.656Z,1.00
2018-11-07T11:38:58.767Z,0.70
2018-11-07T11:41:26.877Z,0.93
2018-11-07T11:43:54.983Z,0.70
2018-11-07T11:46:23.085Z,0.90
2018-11-07T11:48:51.241Z,0.90
2018-11-07T11:51:19.353Z,0.90
2018-11-07T11:53:47.460Z,0.90
2018-11-07T11:56:15.590Z,0.80
2018-11-07T11:58:43.686Z,1.00
2018-11-07T12:01:11.781Z,0.90
2018-11-07T12:03:39.899Z,0.60
2018-11-07T12:06:08.002Z,0.80
2018-11-07T12:08:36.199Z,0.97
2018-11-07T12:11:04.201Z,1.03
2018-11-07T12:13:32.445Z,0.93
2018-11-07T12:16:00.410Z,0.90
2018-11-07T12:18:28.502Z,0.77
2018-11-07T12:20:56.632Z,1.27
2018-11-07T12:23:24.697Z,0.70
2018-11-07T12:25:52.807Z,0.83
2018-11-07T12:28:20.931Z,1.43
2018-11-07T12:30:49.043Z,1.10
2018-11-07T12:33:17.157Z,1.23
2018-11-07T12:35:45.243Z,1.20
2018-11-07T12:38:13.345Z,0.73
2018-11-07T12:40:41.434Z,0.90
2018-11-07T12:43:09.554Z,0.60
2018-11-07T12:45:37.661Z,0.80
2018-11-07T12:48:05.854Z,0.70
2018-11-07T12:50:33.938Z,0.80
2018-11-07T12:53:02.042Z,1.10
2018-11-07T12:55:30.131Z,1.17
2018-11-07T12:57:58.317Z,1.00
2018-11-07T13:00:27.345Z,1.07
2018-11-07T13:02:55.787Z,1.03
2018-11-07T13:05:24.812Z,1.00
2018-11-07T13:07:53.608Z,0.80
2018-11-07T13:10:22.392Z,0.93
2018-11-07T13:12:51.085Z,1.07
2018-11-07T13:15:19.185Z,1.20
2018-11-07T13:17:48.060Z,1.33
2018-11-07T13:20:17.958Z,1.33
2018-11-07T13:22:47.280Z,1.40
2018-11-07T13:25:15.886Z,0.80
2018-11-07T13:27:44.002Z,1.03
2018-11-07T13:30:14.703Z,0.73
2018-11-07T13:32:42.802Z,0.90
2018-11-07T13:35:11.929Z,1.47
2018-11-07T13:37:41.002Z,0.87
2018-11-07T13:40:11.574Z,1.10
2018-11-07T13:42:39.721Z,0.70
2018-11-07T13:45:09.444Z,1.00
2018-11-07T13:47:37.921Z,0.93
2018-11-07T13:50:06.085Z,0.90
2018-11-07T13:52:34.194Z,0.77
2018-11-07T13:55:03.063Z,0.77
2018-11-07T13:57:31.357Z,1.50
2018-11-07T13:59:59.490Z,0.73
2018-11-07T14:02:27.657Z,0.80
2018-11-07T14:04:55.764Z,0.80
2018-11-07T14:07:24.136Z,1.13
2018-11-07T14:09:52.413Z,0.80
2018-11-07T14:12:20.522Z,1.30
2018-11-07T14:14:48.617Z,1.47
2018-11-07T14:17:16.740Z,0.80
2018-11-07T14:19:44.883Z,0.90
2018-11-07T14:22:13.017Z,1.03
2018-11-07T14:24:41.153Z,0.80
2018-11-07T14:27:09.279Z,0.77
2018-11-07T14:29:37.368Z,1.20
2018-11-07T14:32:05.489Z,0.80
2018-11-07T14:34:33.616Z,0.90
2018-11-07T14:37:01.721Z,1.13
2018-11-07T14:39:29.839Z,0.90
2018-11-07T14:41:57.953Z,0.90
2018-11-07T14:44:26.130Z,0.80
2018-11-07T14:46:54.278Z,1.00
2018-11-07T14:49:22.332Z,1.07
2018-11-07T14:51:50.420Z,1.30
2018-11-07T14:54:18.540Z,7.50
2018-11-07T14:56:46.642Z,2.00
2018-11-07T14:59:14.750Z,3.90
2018-11-07T15:01:42.861Z,1.60
2018-11-07T15:04:10.969Z,1.07
2018-11-07T15:06:39.048Z,1.47
2018-11-07T15:09:08.497Z,0.90
2018-11-07T15:11:36.614Z,1.00
2018-11-07T15:14:04.857Z,0.73
2018-11-07T15:16:32.969Z,1.03
2018-11-07T15:19:01.099Z,0.93
2018-11-07T15:21:29.209Z,0.83
2018-11-07T15:23:57.307Z,1.30
2018-11-07T15:26:25.415Z,1.00
2018-11-07T15:28:53.525Z,1.20
2018-11-07T15:31:21.641Z,1.50
2018-11-07T15:33:49.809Z,1.30
2018-11-07T15:36:17.951Z,1.20
2018-11-07T15:38:46.017Z,1.00
2018-11-07T15:41:14.128Z,1.50
2018-11-07T15:43:42.260Z,0.90
2018-11-07T15:46:10.375Z,1.20
2018-11-07T15:48:38.494Z,1.30
2018-11-07T15:51:10.633Z,1.30
2018-11-07T15:53:38.909Z,0.97
2018-11-07T15:56:07.056Z,1.03
2018-11-07T15:58:35.156Z,1.10
2018-11-07T16:01:03.265Z,1.07
2018-11-07T16:03:36.995Z,1.50
2018-11-07T16:06:05.303Z,1.30
2018-11-07T16:08:33.390Z,1.70
2018-11-07T16:11:01.542Z,1.60
2018-11-07T16:13:29.721Z,1.40
2018-11-07T16:15:57.888Z,1.50
2018-11-07T16:18:26.047Z,1.80
2018-11-07T16:20:54.269Z,1.80
2018-11-07T16:23:22.528Z,1.83
2018-11-07T16:25:50.625Z,1.90
2018-11-07T16:28:18.733Z,1.93
2018-11-07T16:30:46.862Z,1.87
2018-11-07T16:33:15.034Z,1.83
2018-11-07T16:35:43.177Z,1.70
2018-11-07T16:38:11.317Z,2.20
2018-11-07T16:40:39.491Z,2.20
2018-11-07T16:43:07.590Z,2.03
2018-11-07T16:45:35.733Z,2.33
2018-11-07T16:48:03.889Z,2.30
2018-11-07T16:50:32.098Z,2.27
2018-11-07T16:53:00.267Z,3.77
2018-11-07T16:55:28.421Z,2.87
2018-11-07T16:57:56.641Z,2.63
2018-11-07T17:00:24.853Z,2.80
2018-11-07T17:02:52.985Z,2.50
2018-11-07T17:05:21.169Z,2.27
2018-11-07T17:07:49.308Z,2.10
2018-11-07T17:10:17.743Z,2.77
2018-11-07T17:12:45.870Z,2.80
2018-11-07T17:15:14.001Z,2.83
2018-11-07T17:17:42.150Z,2.40
2018-11-07T17:20:11.776Z,2.40
2018-11-07T17:22:40.057Z,2.43
2018-11-07T17:25:09.738Z,2.53
2018-11-07T17:27:38.041Z,2.90
2018-11-07T17:30:07.499Z,2.57
2018-11-07T17:32:35.624Z,3.07
2018-11-07T17:35:03.848Z,2.70
2018-11-07T17:37:31.996Z,2.80
2018-11-07T17:40:00.121Z,2.60
2018-11-07T17:42:28.245Z,2.20
2018-11-07T17:44:56.389Z,2.27
2018-11-07T17:47:24.529Z,2.40
2018-11-07T17:49:52.701Z,2.47
2018-11-07T17:52:20.945Z,2.53
2018-11-07T17:54:49.096Z,2.90
2018-11-07T17:57:17.226Z,2.50
2018-11-07T17:59:45.361Z,2.67
2018-11-07T18:02:13.484Z,2.83
2018-11-07T18:04:41.623Z,2.63
2018-11-07T18:07:09.758Z,3.00
2018-11-07T18:09:37.931Z,3.37
2018-11-07T18:12:06.170Z,2.97
2018-11-07T18:14:34.313Z,2.50
2018-11-07T18:17:02.457Z,3.00
2018-11-07T18:19:30.593Z,3.13
2018-11-07T18:21:58.710Z,2.57
2018-11-07T18:24:27.010Z,2.57
2018-11-07T18:26:55.174Z,2.60
2018-11-07T18:29:23.434Z,2.80
2018-11-07T18:31:51.602Z,2.93
2018-11-07T18:34:19.792Z,2.50
2018-11-07T18:36:47.953Z,2.23
2018-11-07T18:39:16.078Z,2.20
2018-11-07T18:41:44.218Z,2.37
2018-11-07T18:44:12.366Z,2.03
2018-11-07T18:46:40.573Z,2.00
2018-11-07T18:49:08.766Z,1.87
2018-11-07T18:51:36.909Z,1.80
2018-11-07T18:54:05.752Z,2.10
2018-11-07T18:56:34.062Z,2.30
2018-11-07T18:59:02.209Z,2.10
2018-11-07T19:01:30.329Z,1.70
2018-11-07T19:03:58.430Z,1.87
2018-11-07T19:06:26.624Z,1.60
2018-11-07T19:08:54.726Z,1.83
2018-11-07T19:11:22.905Z,1.77
2018-11-07T19:13:51.057Z,1.23
2018-11-07T19:16:19.186Z,1.60
2018-11-07T19:18:47.310Z,1.73
2018-11-07T19:21:15.433Z,1.80
2018-11-07T19:23:43.574Z,1.70
2018-11-07T19:26:11.702Z,1.40
2018-11-07T19:28:39.830Z,1.57
2018-11-07T19:31:08.020Z,1.90
2018-11-07T19:33:36.181Z,1.90
2018-11-07T19:36:04.598Z,2.20
2018-11-07T19:38:32.696Z,1.87
2018-11-07T19:41:00.805Z,1.83
2018-11-07T19:43:29.037Z,1.40
2018-11-07T19:45:57.206Z,1.50
2018-11-07T19:48:25.329Z,2.27
2018-11-07T19:50:53.438Z,1.90
2018-11-07T19:53:21.761Z,2.53
2018-11-07T19:55:49.880Z,2.03
2018-11-07T19:58:18.101Z,2.60
2018-11-07T20:00:46.242Z,1.90
2018-11-07T20:03:14.374Z,2.13
2018-11-07T20:05:42.496Z,2.40
2018-11-07T20:08:10.603Z,2.10
2018-11-07T20:10:38.718Z,2.50
2018-11-07T20:13:06.821Z,2.70
2018-11-07T20:15:35.072Z,4.50
2018-11-07T20:18:03.194Z,3.00
2018-11-07T20:20:31.401Z,2.43
2018-11-07T20:22:59.519Z,2.10
2018-11-07T20:25:27.624Z,2.20
2018-11-07T20:27:55.783Z,2.40
2018-11-07T20:30:24.144Z,1.77
2018-11-07T20:32:52.318Z,2.20
2018-11-07T20:35:21.345Z,1.73
2018-11-07T20:37:49.363Z,2.17
2018-11-07T20:40:18.959Z,1.83
2018-11-07T20:42:47.107Z,2.17
2018-11-07T20:45:16.008Z,2.20
2018-11-07T20:47:44.125Z,2.10
2018-11-07T20:50:13.987Z,1.90
2018-11-07T20:52:42.573Z,1.60
2018-11-07T20:55:11.568Z,2.00
2018-11-07T20:57:39.688Z,1.80
2018-11-07T21:00:10.209Z,1.40
2018-11-07T21:02:38.633Z,1.80
2018-11-07T21:05:07.113Z,2.00
2018-11-07T21:07:35.409Z,2.00
2018-11-07T21:10:03.550Z,2.17
2018-11-07T21:15:13.445Z,2.50
2018-11-07T21:17:42.335Z,2.10
2018-11-07T21:20:10.597Z,1.87
2018-11-07T21:22:39.336Z,1.83
2018-11-07T21:25:07.500Z,2.20
2018-11-07T21:27:35.705Z,2.50
2018-11-07T21:30:04.120Z,1.60
2018-11-07T21:32:32.250Z,2.00
2018-11-07T21:35:00.429Z,2.00
2018-11-07T21:37:28.517Z,1.93
2018-11-07T21:39:56.653Z,2.30
2018-11-07T21:42:24.843Z,1.97
2018-11-07T21:44:52.969Z,1.87
2018-11-07T21:47:21.102Z,1.90
2018-11-07T21:49:49.233Z,1.90
2018-11-07T21:52:17.361Z,2.37
2018-11-07T21:54:45.538Z,2.10
2018-11-07T21:57:13.642Z,2.30
2018-11-07T21:59:41.773Z,1.93
2018-11-07T22:02:09.909Z,1.93
2018-11-07T22:04:38.058Z,2.00
2018-11-07T22:07:06.465Z,2.03
2018-11-07T22:09:34.603Z,2.30
2018-11-07T22:12:02.745Z,2.50
2018-11-07T22:14:30.878Z,2.67
2018-11-07T22:16:59.013Z,2.53
2018-11-07T22:19:27.158Z,2.10
2018-11-07T22:21:55.378Z,2.03
2018-11-07T22:24:23.610Z,2.27
2018-11-07T22:26:51.685Z,2.27
2018-11-07T22:29:19.817Z,2.37
2018-11-07T22:31:47.940Z,2.63
2018-11-07T22:34:16.098Z,2.47
2018-11-07T22:36:44.303Z,2.50
2018-11-07T22:39:13.750Z,2.20
2018-11-07T22:41:42.638Z,2.13
2018-11-07T22:44:11.019Z,2.50
2018-11-07T22:46:39.413Z,2.50
2018-11-07T22:49:07.578Z,1.60
2018-11-07T22:51:36.544Z,2.17
2018-11-07T22:54:05.339Z,1.97
2018-11-07T22:56:33.560Z,2.13
2018-11-07T22:59:01.678Z,2.43
2018-11-07T23:01:35.336Z,2.10
2018-11-07T23:04:03.446Z,2.17
2018-11-07T23:06:31.549Z,2.60
2018-11-07T23:08:59.683Z,2.50
2018-11-07T23:11:27.777Z,2.40
2018-11-07T23:13:56.054Z,2.47
2018-11-07T23:16:24.157Z,3.03
2018-11-07T23:18:52.263Z,2.53
2018-11-07T23:21:20.369Z,2.27
2018-11-07T23:23:48.502Z,2.80
2018-11-07T23:26:16.614Z,2.53
2018-11-07T23:28:44.725Z,2.80
2018-11-07T23:31:12.826Z,2.27
2018-11-07T23:33:40.935Z,2.70
2018-11-07T23:36:09.053Z,2.83
2018-11-07T23:38:37.158Z,2.60
2018-11-07T23:41:06.137Z,2.73
2018-11-07T23:43:34.264Z,3.07
2018-11-07T23:46:02.373Z,2.40
2018-11-07T23:48:30.488Z,3.17
2018-11-07T23:50:58.589Z,2.90
2018-11-07T23:53:26.699Z,3.10
2018-11-07T23:55:54.806Z,3.10
2018-11-07T23:58:23.766Z,2.40
